Time;durP1;ratioP1;P1;durP2;ratioP2;P2;SDS_P1;SDS_P2;PMS_P1;PMS_P2;Temp;Humidity;BMP_temperature;BMP_pressure;BME280_temperature;BME280_humidity;BME280_pressure;Samples;Min_cycle;Max_cycle;Signal;HPM_P1;HPM_P2
2023/07/30 00:02:18;;;;;;;11.90;5.43;;;16.20;99.90;;;;;;4973431;28;20101;-69
2023/07/30 00:04:45;;;;;;;14.43;4.70;;;16.10;99.90;;;;;;4967088;28;20027;-69
2023/07/30 00:07:11;;;;;;;14.90;5.13;;;16.10;99.90;;;;;;4966356;28;20035;-69
2023/07/30 00:09:37;;;;;;;14.63;5.03;;;16.10;99.90;;;;;;4973184;28;20037;-69
2023/07/30 00:12:04;;;;;;;15.57;4.88;;;16.00;99.90;;;;;;4970734;28;20519;-69
2023/07/30 00:14:30;;;;;;;14.98;5.10;;;16.00;99.90;;;;;;4997007;28;20053;-69
2023/07/30 00:16:55;;;;;;;13.50;4.90;;;15.90;99.90;;;;;;4962906;28;20035;-69
2023/07/30 00:19:21;;;;;;;14.35;5.03;;;15.90;99.90;;;;;;4980652;28;20034;-69
2023/07/30 00:21:47;;;;;;;17.15;5.25;;;15.90;99.90;;;;;;5034898;28;20045;-69
2023/07/30 00:24:13;;;;;;;14.27;5.20;;;15.90;99.90;;;;;;5038122;28;20043;-69
2023/07/30 00:26:39;;;;;;;14.32;4.93;;;15.90;99.90;;;;;;4975728;28;20369;-69
2023/07/30 00:29:05;;;;;;;17.02;5.05;;;15.90;99.90;;;;;;4967953;28;20050;-69
2023/07/30 00:31:30;;;;;;;18.23;5.13;;;15.90;99.90;;;;;;4978060;28;20046;-69
2023/07/30 00:33:56;;;;;;;13.10;5.47;;;15.80;99.90;;;;;;5038996;28;20560;-69
2023/07/30 00:36:21;;;;;;;12.90;4.72;;;15.90;99.90;;;;;;4986610;28;20065;-69
2023/07/30 00:38:47;;;;;;;15.70;5.60;;;15.90;99.90;;;;;;4962564;28;20055;-69
2023/07/30 00:41:13;;;;;;;14.45;5.55;;;15.80;99.90;;;;;;4971526;28;20126;-70
2023/07/30 00:43:38;;;;;;;13.13;5.20;;;15.80;99.90;;;;;;5034158;28;20039;-69
2023/07/30 00:46:04;;;;;;;16.08;5.07;;;15.80;99.90;;;;;;4966795;28;20613;-69
2023/07/30 00:48:30;;;;;;;16.08;4.97;;;15.80;99.90;;;;;;5025726;28;20046;-69
2023/07/30 00:50:56;;;;;;;12.60;5.32;;;15.70;99.90;;;;;;5034805;28;20043;-69
2023/07/30 00:53:23;;;;;;;15.38;5.45;;;15.70;99.90;;;;;;4963850;28;20050;-70
2023/07/30 00:55:49;;;;;;;13.68;5.25;;;15.70;99.90;;;;;;5038535;28;20054;-69
2023/07/30 00:58:16;;;;;;;13.75;5.00;;;15.70;99.90;;;;;;4976417;28;20050;-69
2023/07/30 01:00:42;;;;;;;12.23;4.82;;;15.70;99.90;;;;;;4975750;28;20039;-69
2023/07/30 01:03:07;;;;;;;13.00;4.80;;;15.70;99.90;;;;;;5041913;28;20399;-69
2023/07/30 01:05:33;;;;;;;11.25;4.75;;;15.70;99.90;;;;;;4974272;28;20031;-69
2023/07/30 01:07:59;;;;;;;10.80;4.72;;;15.60;99.90;;;;;;4972880;28;20027;-70
2023/07/30 01:10:25;;;;;;;11.90;4.88;;;15.70;99.90;;;;;;4987065;28;20031;-69
2023/07/30 01:12:52;;;;;;;13.57;4.57;;;15.60;99.90;;;;;;5040714;28;20046;-69
2023/07/30 01:15:18;;;;;;;12.05;4.50;;;15.60;99.90;;;;;;4969379;28;20091;-69
2023/07/30 01:17:45;;;;;;;11.73;4.47;;;15.60;99.90;;;;;;5036899;28;20053;-69
2023/07/30 01:20:12;;;;;;;11.40;4.63;;;15.60;99.90;;;;;;4973504;28;20050;-69
2023/07/30 01:22:37;;;;;;;14.52;4.68;;;15.60;99.90;;;;;;5031363;28;20118;-69
2023/07/30 01:25:03;;;;;;;16.80;4.93;;;15.50;99.90;;;;;;4975259;28;20121;-69
2023/07/30 01:27:32;;;;;;;17.42;4.50;;;15.50;99.90;;;;;;4977712;28;20035;-69
2023/07/30 01:30:08;;;;;;;13.80;5.15;;;15.50;99.90;;;;;;5043109;28;20061;-70
2023/07/30 01:32:34;;;;;;;8.80;4.45;;;15.50;99.90;;;;;;5027531;28;20039;-69
2023/07/30 01:35:02;;;;;;;12.45;4.80;;;15.50;99.90;;;;;;5054053;28;20122;-69
2023/07/30 01:37:29;;;;;;;14.85;4.30;;;15.50;99.90;;;;;;4974380;28;20050;-69
2023/07/30 01:39:55;;;;;;;13.27;4.78;;;15.40;99.90;;;;;;5048933;28;20038;-70
2023/07/30 01:42:21;;;;;;;9.13;4.03;;;15.40;99.90;;;;;;4970359;28;20038;-69
2023/07/30 01:44:47;;;;;;;11.85;4.43;;;15.40;99.90;;;;;;5043753;28;20100;-69
2023/07/30 01:47:13;;;;;;;18.00;4.40;;;15.40;99.90;;;;;;4977856;28;20085;-69
2023/07/30 01:49:38;;;;;;;9.90;4.03;;;15.40;99.90;;;;;;4968820;28;20473;-69
2023/07/30 01:52:04;;;;;;;11.88;4.15;;;15.40;99.90;;;;;;5037889;28;20432;-69
2023/07/30 01:54:30;;;;;;;10.52;3.72;;;15.40;99.90;;;;;;4996050;28;20408;-69
2023/07/30 01:56:55;;;;;;;18.25;4.20;;;15.40;99.90;;;;;;5045567;28;20050;-69
2023/07/30 01:59:21;;;;;;;13.63;3.90;;;15.40;99.90;;;;;;4975301;28;20079;-69
2023/07/30 02:01:46;;;;;;;15.70;4.90;;;15.40;99.90;;;;;;4973284;28;20035;-69
2023/07/30 02:04:12;;;;;;;11.60;4.43;;;15.40;99.90;;;;;;4970811;28;20467;-69
2023/07/30 02:06:38;;;;;;;14.10;4.22;;;15.40;99.90;;;;;;4981531;28;20084;-69
2023/07/30 02:09:03;;;;;;;12.48;4.45;;;15.30;99.90;;;;;;5044929;28;20034;-69
2023/07/30 02:11:29;;;;;;;11.75;3.78;;;15.30;99.90;;;;;;4974529;28;20035;-69
2023/07/30 02:13:54;;;;;;;11.38;3.80;;;15.30;99.90;;;;;;5050080;28;20103;-69
2023/07/30 02:16:20;;;;;;;13.35;3.97;;;15.20;99.90;;;;;;5040161;28;20045;-69
2023/07/30 02:18:46;;;;;;;8.50;3.72;;;15.20;99.90;;;;;;4969981;28;20042;-69
2023/07/30 02:21:12;;;;;;;13.95;4.22;;;15.20;99.90;;;;;;5037067;28;20050;-69
2023/07/30 02:23:38;;;;;;;15.02;4.20;;;15.10;99.90;;;;;;4975447;28;20034;-69
2023/07/30 02:26:03;;;;;;;10.90;3.53;;;15.10;99.90;;;;;;4976804;28;20031;-69
2023/07/30 02:28:29;;;;;;;14.30;3.72;;;15.10;99.90;;;;;;4969913;28;20470;-69
2023/07/30 02:30:55;;;;;;;14.35;3.50;;;15.00;99.90;;;;;;5044679;28;20548;-70
2023/07/30 02:33:20;;;;;;;19.38;4.32;;;15.00;99.90;;;;;;4976445;28;20365;-70
2023/07/30 02:35:46;;;;;;;13.63;4.20;;;15.00;99.90;;;;;;5045941;28;20404;-69
2023/07/30 02:38:11;;;;;;;14.05;3.78;;;15.00;99.90;;;;;;5039022;28;20043;-69
2023/07/30 02:40:37;;;;;;;12.40;4.30;;;15.00;99.90;;;;;;4972828;28;20042;-69
2023/07/30 02:43:03;;;;;;;12.38;3.70;;;15.00;99.90;;;;;;4973456;28;20500;-69
2023/07/30 02:45:29;;;;;;;14.82;4.45;;;15.00;99.90;;;;;;4968636;28;20177;-70
2023/07/30 02:47:55;;;;;;;12.45;4.07;;;15.00;99.90;;;;;;5034765;28;20397;-69
2023/07/30 02:50:21;;;;;;;11.70;3.75;;;15.00;99.90;;;;;;4980755;28;20039;-70
2023/07/30 02:52:46;;;;;;;10.38;4.05;;;15.00;99.90;;;;;;4975115;28;20043;-70
2023/07/30 02:55:12;;;;;;;13.63;4.28;;;15.00;99.90;;;;;;4969314;28;20035;-69
2023/07/30 02:57:37;;;;;;;15.48;4.45;;;15.00;99.90;;;;;;4987511;28;20027;-69
2023/07/30 03:00:04;;;;;;;12.77;4.32;;;15.10;99.90;;;;;;5043101;28;20523;-70
2023/07/30 03:02:29;;;;;;;10.70;3.85;;;15.10;99.90;;;;;;5046303;28;20123;-70
2023/07/30 03:04:55;;;;;;;11.00;4.28;;;15.10;99.90;;;;;;4984848;28;20484;-69
2023/07/30 03:07:21;;;;;;;13.82;3.80;;;15.10;99.90;;;;;;5043958;28;20113;-70
2023/07/30 03:09:46;;;;;;;11.77;3.95;;;15.10;99.90;;;;;;4969526;28;20111;-70
2023/07/30 03:12:13;;;;;;;9.77;3.80;;;15.10;99.90;;;;;;5052373;28;20097;-69
2023/07/30 03:14:38;;;;;;;13.88;4.40;;;15.10;99.90;;;;;;4992152;28;20032;-69
2023/07/30 03:17:04;;;;;;;13.60;4.60;;;15.10;99.90;;;;;;5042824;28;20092;-69
2023/07/30 03:19:30;;;;;;;10.32;3.88;;;15.10;99.90;;;;;;5046034;28;20046;-69
2023/07/30 03:21:56;;;;;;;11.65;3.97;;;15.10;99.90;;;;;;4968076;28;20488;-69
2023/07/30 03:24:22;;;;;;;12.75;3.45;;;15.10;99.90;;;;;;4976451;28;20026;-70
2023/07/30 03:26:47;;;;;;;15.98;3.92;;;15.10;99.90;;;;;;4977124;28;20114;-69
2023/07/30 03:29:14;;;;;;;16.67;3.85;;;15.10;99.90;;;;;;4971996;28;20043;-70
2023/07/30 03:31:39;;;;;;;16.10;4.72;;;15.10;99.90;;;;;;4975339;28;20472;-69
2023/07/30 03:34:05;;;;;;;14.55;3.65;;;15.10;99.90;;;;;;4969012;28;20038;-69
2023/07/30 03:36:31;;;;;;;11.73;4.43;;;15.10;99.90;;;;;;4971893;28;20172;-69
2023/07/30 03:38:56;;;;;;;14.93;4.38;;;15.10;99.90;;;;;;4973709;28;20041;-69
2023/07/30 03:41:22;;;;;;;10.20;4.35;;;15.00;99.90;;;;;;5049850;28;20034;-69
2023/07/30 03:43:48;;;;;;;10.50;3.92;;;15.00;99.90;;;;;;4969773;28;20039;-69
2023/07/30 03:46:13;;;;;;;14.75;4.15;;;15.00;99.90;;;;;;4971510;28;20095;-69
2023/07/30 03:48:39;;;;;;;12.63;3.92;;;15.00;99.90;;;;;;4969058;28;20057;-69
2023/07/30 03:51:07;;;;;;;14.25;4.78;;;15.00;99.90;;;;;;4987410;28;20070;-69
2023/07/30 03:53:32;;;;;;;13.68;3.90;;;15.00;99.90;;;;;;4968508;28;20148;-69
2023/07/30 03:55:58;;;;;;;16.00;4.20;;;15.00;99.90;;;;;;4993368;28;20496;-70
2023/07/30 03:58:24;;;;;;;13.98;4.20;;;15.00;99.90;;;;;;4991025;28;20066;-69
2023/07/30 04:00:49;;;;;;;12.23;3.95;;;15.00;99.90;;;;;;4977869;28;20405;-69
2023/07/30 04:03:15;;;;;;;13.45;4.57;;;15.00;99.90;;;;;;4975680;28;20035;-70
2023/07/30 04:05:40;;;;;;;15.70;4.50;;;15.00;99.90;;;;;;5035853;28;20035;-70
2023/07/30 04:08:06;;;;;;;14.95;4.55;;;14.90;99.90;;;;;;5040449;28;20413;-70
2023/07/30 04:10:32;;;;;;;14.73;4.28;;;15.00;99.90;;;;;;4989040;28;20412;-69
2023/07/30 04:12:58;;;;;;;13.75;4.00;;;14.90;99.90;;;;;;4973379;28;20054;-69
2023/07/30 04:15:23;;;;;;;10.02;4.13;;;14.90;99.90;;;;;;5046364;28;20046;-69
2023/07/30 04:17:49;;;;;;;14.10;4.22;;;14.90;99.90;;;;;;5013530;28;20031;-69
2023/07/30 04:20:14;;;;;;;12.40;3.83;;;15.00;99.90;;;;;;5047786;28;20121;-69
2023/07/30 04:22:41;;;;;;;15.80;4.45;;;15.00;99.90;;;;;;4999708;28;20504;-69
2023/07/30 04:25:07;;;;;;;15.73;4.68;;;15.00;99.90;;;;;;4987084;28;20410;-69
2023/07/30 04:27:33;;;;;;;14.43;4.60;;;15.00;99.90;;;;;;4974334;28;20045;-69
2023/07/30 04:29:59;;;;;;;12.38;4.65;;;15.00;99.90;;;;;;4971103;28;20133;-69
2023/07/30 04:32:24;;;;;;;11.00;4.15;;;15.00;99.90;;;;;;4968594;28;20039;-69
2023/07/30 04:34:50;;;;;;;14.05;4.53;;;15.00;99.90;;;;;;4975450;28;20039;-70
2023/07/30 04:37:16;;;;;;;16.08;5.00;;;15.00;99.90;;;;;;4977989;28;20039;-69
2023/07/30 04:39:41;;;;;;;18.50;4.88;;;15.00;99.90;;;;;;5037020;28;20043;-69
2023/07/30 04:42:07;;;;;;;16.30;4.72;;;15.10;99.90;;;;;;4963356;28;20047;-70
2023/07/30 04:44:33;;;;;;;12.75;4.60;;;15.10;99.90;;;;;;4974555;28;20318;-69
2023/07/30 04:46:58;;;;;;;21.15;4.20;;;15.10;99.90;;;;;;4974872;28;20038;-70
2023/07/30 04:49:24;;;;;;;16.02;4.65;;;15.10;99.90;;;;;;4977974;28;20046;-70
2023/07/30 04:51:49;;;;;;;15.02;4.40;;;15.20;99.90;;;;;;4972576;28;20104;-70
2023/07/30 04:54:15;;;;;;;13.40;4.43;;;15.20;99.90;;;;;;4970985;28;20107;-69
2023/07/30 04:56:41;;;;;;;15.02;4.28;;;15.30;99.90;;;;;;4975490;28;20550;-69
2023/07/30 04:59:07;;;;;;;16.35;4.65;;;15.30;99.90;;;;;;4981577;28;20044;-70
2023/07/30 05:01:32;;;;;;;16.75;4.70;;;15.30;99.90;;;;;;5043151;28;20408;-69
2023/07/30 05:03:58;;;;;;;13.30;4.32;;;15.30;99.90;;;;;;4995443;28;20027;-70
2023/07/30 05:06:24;;;;;;;14.85;4.80;;;15.40;99.90;;;;;;4975619;28;20449;-69
2023/07/30 05:08:49;;;;;;;15.80;4.50;;;15.40;99.90;;;;;;4976004;28;20159;-69
2023/07/30 05:11:15;;;;;;;16.90;5.13;;;15.40;99.90;;;;;;4969399;28;20455;-70
2023/07/30 05:13:40;;;;;;;15.55;4.78;;;15.50;99.90;;;;;;4973162;28;20049;-69
2023/07/30 05:16:06;;;;;;;22.50;4.95;;;15.50;99.90;;;;;;5046600;28;20039;-70
2023/07/30 05:18:32;;;;;;;17.75;4.75;;;15.50;99.90;;;;;;5036755;28;20090;-69
2023/07/30 05:20:58;;;;;;;20.80;4.95;;;15.60;99.90;;;;;;4975978;28;20087;-69
2023/07/30 05:23:23;;;;;;;21.25;5.50;;;15.60;99.90;;;;;;5041955;28;20561;-69
2023/07/30 05:25:49;;;;;;;16.88;5.05;;;15.70;99.90;;;;;;4986934;28;20148;-69
2023/07/30 05:28:15;;;;;;;19.13;6.03;;;15.70;99.90;;;;;;5005543;22;20555;-78
2023/07/30 05:30:40;;;;;;;24.85;5.57;;;15.80;99.90;;;;;;5071929;28;20045;-74
2023/07/30 05:33:06;;;;;;;17.00;5.20;;;15.70;99.90;;;;;;5062643;28;20037;-77
2023/07/30 05:35:31;;;;;;;16.90;5.18;;;15.80;99.90;;;;;;5077490;28;20056;-77
2023/07/30 05:37:57;;;;;;;21.92;5.47;;;15.80;99.90;;;;;;5069596;28;20483;-77
2023/07/30 05:40:23;;;;;;;21.85;5.85;;;15.90;99.90;;;;;;5058246;28;20118;-76
2023/07/30 05:42:48;;;;;;;12.30;4.65;;;15.90;99.90;;;;;;5052986;28;20482;-78
2023/07/30 05:45:14;;;;;;;15.68;4.82;;;15.90;99.90;;;;;;5060432;28;20080;-78
2023/07/30 05:47:40;;;;;;;20.45;5.60;;;16.00;99.90;;;;;;5053349;28;20035;-77
2023/07/30 05:50:07;;;;;;;17.92;4.60;;;16.00;99.90;;;;;;5057038;28;20047;-77
2023/07/30 05:52:32;;;;;;;26.85;6.03;;;16.10;99.90;;;;;;5053599;28;20053;-77
2023/07/30 05:54:58;;;;;;;19.75;5.47;;;16.10;99.90;;;;;;5057409;28;20039;-77
2023/07/30 05:57:24;;;;;;;25.83;5.32;;;16.10;99.90;;;;;;5052166;28;20134;-77
2023/07/30 05:59:50;;;;;;;20.42;5.35;;;16.20;99.90;;;;;;5047695;28;20053;-78
2023/07/30 06:02:15;;;;;;;22.42;5.40;;;16.20;99.90;;;;;;5050203;28;20038;-77
2023/07/30 06:04:41;;;;;;;18.40;5.13;;;16.30;99.90;;;;;;5053854;28;20060;-78
2023/07/30 06:07:07;;;;;;;16.13;5.25;;;16.30;99.90;;;;;;5058896;28;20068;-77
2023/07/30 06:09:32;;;;;;;19.25;4.95;;;16.30;99.90;;;;;;5054218;28;20106;-77
2023/07/30 06:11:58;;;;;;;18.13;5.47;;;16.40;99.90;;;;;;5062052;28;20095;-76
2023/07/30 06:14:24;;;;;;;15.38;5.57;;;16.40;99.90;;;;;;5045591;28;20042;-77
2023/07/30 06:16:51;;;;;;;20.92;5.63;;;16.50;99.90;;;;;;5055727;28;20057;-78
2023/07/30 06:19:17;;;;;;;26.02;5.47;;;16.50;99.90;;;;;;5061290;28;20081;-77
2023/07/30 06:21:42;;;;;;;18.17;5.15;;;16.60;99.90;;;;;;5061223;28;20034;-78
2023/07/30 06:24:08;;;;;;;20.65;5.30;;;16.50;99.90;;;;;;5060299;28;20030;-77
2023/07/30 06:26:34;;;;;;;18.85;5.10;;;16.70;99.90;;;;;;5039008;28;20047;-77
2023/07/30 06:29:00;;;;;;;16.15;4.70;;;16.80;99.90;;;;;;5051833;28;20051;-77
2023/07/30 06:31:26;;;;;;;22.95;5.70;;;16.70;99.90;;;;;;5057698;28;20051;-76
2023/07/30 06:33:52;;;;;;;23.30;5.20;;;16.80;99.90;;;;;;5035924;28;20069;-78
2023/07/30 06:36:17;;;;;;;16.38;4.82;;;16.80;99.90;;;;;;5057829;28;20109;-77
2023/07/30 06:38:43;;;;;;;22.38;5.03;;;16.90;99.90;;;;;;5052650;28;20536;-77
2023/07/30 06:41:08;;;;;;;23.05;4.70;;;16.90;99.90;;;;;;5058073;28;20050;-77
2023/07/30 06:43:34;;;;;;;19.20;5.10;;;17.00;99.90;;;;;;5048286;28;20045;-77
2023/07/30 06:46:00;;;;;;;20.15;4.90;;;17.00;99.90;;;;;;5031420;28;20042;-74
2023/07/30 06:48:25;;;;;;;26.52;5.55;;;17.10;99.90;;;;;;5058861;28;20042;-79
2023/07/30 06:50:51;;;;;;;18.23;4.18;;;17.10;99.90;;;;;;5047928;28;20031;-78
2023/07/30 06:53:17;;;;;;;18.77;4.63;;;17.10;99.90;;;;;;5061501;28;20041;-77
2023/07/30 06:55:43;;;;;;;21.45;5.13;;;17.20;99.90;;;;;;5056504;28;20488;-79
2023/07/30 06:58:08;;;;;;;18.80;4.72;;;17.30;99.90;;;;;;5062436;28;20047;-79
2023/07/30 07:00:34;;;;;;;16.55;4.60;;;17.30;99.90;;;;;;4992658;28;20042;-78
2023/07/30 07:03:00;;;;;;;16.75;4.50;;;17.40;99.90;;;;;;5051157;28;20046;-78
2023/07/30 07:05:25;;;;;;;18.63;4.97;;;17.40;99.90;;;;;;5054734;28;20038;-79
2023/07/30 07:07:51;;;;;;;22.63;4.78;;;17.50;99.90;;;;;;5045874;28;20042;-78
2023/07/30 07:10:16;;;;;;;14.23;3.90;;;17.50;99.90;;;;;;5060608;28;20572;-80
2023/07/30 07:12:42;;;;;;;16.05;3.72;;;17.50;99.90;;;;;;5051087;28;20070;-79
2023/07/30 07:15:08;;;;;;;16.00;4.22;;;17.50;99.90;;;;;;5039418;28;20113;-81
2023/07/30 07:17:34;;;;;;;12.38;4.25;;;17.50;99.90;;;;;;5049176;28;20045;-80
2023/07/30 07:19:59;;;;;;;14.30;4.00;;;17.50;99.90;;;;;;5045369;28;20489;-79
2023/07/30 07:22:25;;;;;;;18.42;4.35;;;17.60;99.90;;;;;;5035988;28;20046;-82
2023/07/30 07:24:54;;;;;;;14.98;3.75;;;17.50;99.90;;;;;;5034958;28;20102;-81
2023/07/30 07:27:19;;;;;;;21.02;4.90;;;17.50;99.90;;;;;;5058732;28;20038;-80
2023/07/30 07:29:45;;;;;;;20.85;5.00;;;17.60;99.90;;;;;;5058862;28;20115;-81
2023/07/30 07:32:10;;;;;;;17.55;3.90;;;17.50;99.90;;;;;;5039485;28;20080;-80
2023/07/30 07:34:37;;;;;;;15.23;3.85;;;17.60;99.90;;;;;;5055619;28;20046;-80
2023/07/30 07:37:02;;;;;;;17.02;4.43;;;17.60;99.90;;;;;;5052773;28;20411;-80
2023/07/30 07:39:28;;;;;;;14.73;4.20;;;17.70;99.90;;;;;;5057651;28;20038;-80
2023/07/30 07:41:55;;;;;;;22.15;4.85;;;17.80;99.90;;;;;;5051575;28;20117;-80
2023/07/30 07:44:21;;;;;;;16.95;3.78;;;17.80;99.90;;;;;;5053338;28;21288;-80
2023/07/30 07:46:47;;;;;;;22.30;4.50;;;17.80;99.90;;;;;;5047308;28;20087;-80
2023/07/30 07:49:13;;;;;;;8.73;3.10;;;17.80;99.90;;;;;;5045707;28;20406;-81
2023/07/30 07:51:38;;;;;;;17.27;4.28;;;17.70;99.90;;;;;;5043295;28;20050;-79
2023/07/30 07:54:04;;;;;;;15.85;3.65;;;17.70;99.90;;;;;;5042869;28;20114;-81
2023/07/30 07:56:31;;;;;;;13.00;3.90;;;17.70;99.90;;;;;;4977629;28;20043;-80
2023/07/30 07:58:57;;;;;;;14.70;3.45;;;17.80;99.90;;;;;;5045133;28;20088;-79
2023/07/30 08:01:22;;;;;;;12.82;3.58;;;17.80;99.90;;;;;;5049060;28;20038;-79
2023/07/30 08:03:48;;;;;;;12.20;3.55;;;17.90;99.90;;;;;;4979491;28;20066;-79
2023/07/30 08:06:16;;;;;;;15.70;4.07;;;18.00;99.90;;;;;;5045128;28;20505;-80
2023/07/30 08:08:42;;;;;;;12.05;3.30;;;18.00;99.90;;;;;;5045205;28;20074;-80
2023/07/30 08:11:08;;;;;;;12.05;3.40;;;18.10;99.90;;;;;;5044694;28;20069;-80
2023/07/30 08:13:35;;;;;;;14.18;3.50;;;18.20;99.90;;;;;;5049220;28;20046;-80
2023/07/30 08:16:01;;;;;;;11.63;3.88;;;18.30;99.90;;;;;;5051163;28;20043;-80
2023/07/30 08:18:27;;;;;;;11.05;3.83;;;18.30;99.90;;;;;;5055926;28;20397;-80
2023/07/30 08:20:53;;;;;;;16.35;3.97;;;18.40;99.90;;;;;;5056939;28;20038;-79
2023/07/30 08:23:18;;;;;;;13.20;3.90;;;18.40;99.90;;;;;;5055468;28;20118;-79
2023/07/30 08:25:44;;;;;;;15.55;3.50;;;18.40;99.90;;;;;;5052581;28;20042;-79
2023/07/30 08:28:10;;;;;;;17.48;4.13;;;18.50;99.90;;;;;;5053132;28;20049;-79
2023/07/30 08:30:35;;;;;;;15.05;4.32;;;18.60;99.90;;;;;;5050405;28;20049;-79
2023/07/30 08:33:01;;;;;;;12.75;4.32;;;18.80;99.90;;;;;;5019468;28;20035;-79
2023/07/30 08:35:26;;;;;;;13.32;5.18;;;18.90;99.90;;;;;;5059325;28;20046;-80
2023/07/30 08:37:53;;;;;;;13.85;4.93;;;18.90;99.90;;;;;;5051209;28;20497;-80
2023/07/30 08:40:24;;;;;;;16.63;4.53;;;19.00;99.90;;;;;;5048214;28;20759;-80
2023/07/30 08:42:53;;;;;;;15.88;5.00;;;19.10;99.90;;;;;;5040825;28;20045;-77
2023/07/30 08:45:19;;;;;;;13.02;4.78;;;19.20;99.90;;;;;;5056028;28;20087;-79
2023/07/30 08:47:46;;;;;;;13.45;4.45;;;19.20;99.90;;;;;;5045980;28;20034;-80
2023/07/30 08:50:12;;;;;;;16.85;4.35;;;19.10;99.90;;;;;;5059832;28;20048;-79
2023/07/30 08:52:39;;;;;;;13.90;4.50;;;19.00;99.90;;;;;;5031265;28;20042;-80
2023/07/30 08:55:05;;;;;;;19.42;4.93;;;18.90;99.90;;;;;;5049867;28;20108;-80
2023/07/30 08:57:32;;;;;;;11.40;4.22;;;18.90;99.90;;;;;;5055717;28;20521;-80
2023/07/30 09:00:04;;;;;;;13.52;4.65;;;19.00;99.90;;;;;;5056719;28;20095;-77
2023/07/30 09:02:33;;;;;;;14.65;4.63;;;19.10;99.90;;;;;;5049412;28;20064;-79
2023/07/30 09:05:01;;;;;;;15.73;4.63;;;19.10;99.90;;;;;;4983117;28;20077;-80
2023/07/30 09:07:27;;;;;;;12.80;3.97;;;19.20;99.90;;;;;;5038536;28;20035;-80
2023/07/30 09:09:52;;;;;;;12.90;3.88;;;19.30;99.90;;;;;;5055598;28;20061;-80
2023/07/30 09:12:18;;;;;;;12.25;3.83;;;19.40;99.90;;;;;;5057144;28;20035;-80
2023/07/30 09:14:46;;;;;;;13.52;3.75;;;19.40;99.90;;;;;;5050785;28;20105;-80
2023/07/30 09:17:19;;;;;;;13.18;4.03;;;19.40;99.90;;;;;;5084180;28;20042;-82
2023/07/30 09:19:46;;;;;;;15.77;3.80;;;19.30;99.90;;;;;;5049248;28;20486;-80
2023/07/30 09:22:12;;;;;;;16.73;3.92;;;19.20;99.90;;;;;;5055686;28;20391;-80
2023/07/30 09:24:44;;;;;;;10.35;3.72;;;19.10;99.90;;;;;;5053916;28;20031;-79
2023/07/30 09:27:10;;;;;;;;;;;19.00;99.90;;;;;;5051307;28;20069;-79
2023/07/30 09:29:36;;;;;;;15.10;4.40;;;19.00;99.90;;;;;;5049827;28;19993;-79
2023/07/30 09:32:01;;;;;;;17.58;4.10;;;18.80;99.90;;;;;;4987564;28;20038;-79
2023/07/30 09:34:27;;;;;;;14.43;4.03;;;18.80;99.90;;;;;;5057602;28;20486;-81
2023/07/30 09:36:54;;;;;;;15.40;4.72;;;18.70;99.90;;;;;;5036369;28;20066;-78
2023/07/30 09:39:24;;;;;;;16.45;4.55;;;18.60;99.90;;;;;;5055969;28;20399;-79
2023/07/30 09:41:51;;;;;;;13.18;4.72;;;18.50;99.90;;;;;;5064692;28;20044;-78
2023/07/30 09:44:20;;;;;;;15.10;4.60;;;18.40;99.90;;;;;;5046338;28;20039;-79
2023/07/30 09:46:49;;;;;;;12.93;3.47;;;18.40;99.90;;;;;;5070086;28;20058;-79
2023/07/30 09:49:16;;;;;;;11.15;3.35;;;18.40;99.90;;;;;;5056982;28;20526;-79
2023/07/30 09:51:42;;;;;;;9.90;3.50;;;18.40;99.90;;;;;;5068947;28;20098;-77
2023/07/30 09:54:16;;;;;;;10.50;3.72;;;18.50;99.90;;;;;;5057751;28;20100;-78
2023/07/30 09:56:42;;;;;;;10.25;3.03;;;18.50;99.90;;;;;;5060565;28;20361;-79
2023/07/30 09:59:09;;;;;;;14.43;3.58;;;18.50;99.90;;;;;;5071065;28;20063;-76
2023/07/30 10:01:43;;;;;;;9.88;3.00;;;18.60;99.90;;;;;;5059183;28;20042;-78
2023/07/30 10:04:11;;;;;;;10.30;2.60;;;18.50;99.90;;;;;;5055311;28;20487;-80
2023/07/30 10:06:46;;;;;;;11.18;2.70;;;18.50;99.90;;;;;;5063134;28;20088;-81
2023/07/30 10:09:14;;;;;;;10.15;3.10;;;18.30;99.90;;;;;;5056229;28;20053;-79
2023/07/30 10:11:40;;;;;;;10.65;3.40;;;18.10;99.90;;;;;;5057308;28;20046;-79
2023/07/30 10:14:06;;;;;;;11.15;3.10;;;17.90;99.90;;;;;;5047897;28;20042;-79
2023/07/30 10:16:32;;;;;;;12.20;3.08;;;17.80;99.90;;;;;;5052982;28;20102;-80
2023/07/30 10:18:58;;;;;;;11.40;3.03;;;17.70;99.90;;;;;;5051370;28;20502;-80
2023/07/30 10:21:26;;;;;;;11.00;3.25;;;17.60;99.90;;;;;;5045988;28;20114;-83
2023/07/30 10:24:00;;;;;;;8.57;3.00;;;17.50;99.90;;;;;;5038168;28;20035;-82
2023/07/30 10:26:35;;;;;;;12.27;3.03;;;17.50;99.90;;;;;;5066740;28;20030;-81
2023/07/30 10:29:18;;;;;;;9.52;2.92;;;17.40;99.90;;;;;;5055303;28;20038;-81
2023/07/30 10:31:55;;;;;;;12.02;2.92;;;17.50;99.90;;;;;;5030004;28;20057;-81
2023/07/30 10:34:25;;;;;;;14.48;2.95;;;17.50;99.90;;;;;;5056244;28;20122;-81
2023/07/30 10:36:52;;;;;;;7.63;2.42;;;17.50;99.90;;;;;;4990457;28;20034;-82
2023/07/30 10:39:55;;;;;;;10.27;2.80;;;17.50;99.90;;;;;;5045519;28;20053;-83
2023/07/30 10:42:21;;;;;;;13.60;3.50;;;17.60;99.90;;;;;;5040445;28;20038;-83
2023/07/30 10:44:46;;;;;;;14.75;3.47;;;17.80;99.90;;;;;;5039074;28;20050;-79
2023/07/30 10:47:15;;;;;;;11.02;3.17;;;18.00;99.90;;;;;;5057465;28;20402;-78
2023/07/30 10:49:43;;;;;;;9.95;3.15;;;18.10;99.90;;;;;;4977922;28;20498;-82
2023/07/30 10:52:09;;;;;;;13.02;2.60;;;18.40;99.90;;;;;;4974571;28;20043;-82
2023/07/30 10:54:35;;;;;;;9.40;2.80;;;18.80;99.90;;;;;;5046853;28;20091;-80
2023/07/30 10:57:04;;;;;;;9.30;2.33;;;19.10;99.90;;;;;;5048439;28;20038;-80
2023/07/30 10:59:36;;;;;;;8.98;2.47;;;19.50;99.90;;;;;;5038064;28;20138;-78
2023/07/30 11:02:02;;;;;;;5.85;2.33;;;19.70;99.90;;;;;;5056803;28;20043;-79
2023/07/30 11:04:28;;;;;;;7.82;2.40;;;20.00;99.90;;;;;;5046157;28;20443;-80
2023/07/30 11:06:54;;;;;;;10.77;2.60;;;20.40;99.90;;;;;;5046066;28;20042;-81
2023/07/30 11:09:21;;;;;;;7.05;1.80;;;20.70;99.90;;;;;;5041842;28;20125;-80
2023/07/30 11:11:47;;;;;;;6.07;1.80;;;21.00;99.90;;;;;;5035135;28;20042;-81
2023/07/30 11:14:20;;;;;;;13.23;2.35;;;21.30;99.90;;;;;;5031246;28;20537;-81
2023/07/30 11:16:55;;;;;;;5.97;1.92;;;21.60;99.90;;;;;;5060915;28;20470;-63
2023/07/30 11:19:21;;;;;;;;;;;21.80;99.90;;;;;;5070980;28;20106;-64
2023/07/30 11:21:48;;;;;;;6.40;2.00;;;22.10;99.90;;;;;;5071307;28;19963;-64
2023/07/30 11:24:14;;;;;;;8.02;1.85;;;22.20;99.90;;;;;;5073144;28;20348;-65
2023/07/30 11:26:40;;;;;;;6.65;1.90;;;22.30;99.90;;;;;;5065756;28;20032;-64
2023/07/30 11:29:19;;;;;;;9.27;2.87;;;22.20;99.90;;;;;;5077420;22;20043;-64
2023/07/30 11:31:45;;;;;;;5.25;1.85;;;22.30;99.90;;;;;;4998682;28;20681;-67
2023/07/30 11:34:12;;;;;;;6.97;1.83;;;22.50;99.90;;;;;;5021656;28;20038;-67
2023/07/30 11:36:40;;;;;;;10.60;2.10;;;22.70;99.90;;;;;;5005405;28;20046;-66
2023/07/30 11:39:06;;;;;;;10.98;2.20;;;22.80;99.90;;;;;;4986536;28;20043;-66
2023/07/30 11:41:33;;;;;;;7.13;2.40;;;23.00;99.90;;;;;;4986601;28;20034;-67
2023/07/30 11:43:59;;;;;;;9.32;2.25;;;23.10;99.90;;;;;;4987520;28;20117;-67
2023/07/30 11:46:24;;;;;;;6.20;2.00;;;23.10;99.90;;;;;;4987180;28;20157;-67
2023/07/30 11:48:51;;;;;;;;;;;23.20;99.50;;;;;;4986866;28;20077;-67
2023/07/30 11:51:28;;;;;;;8.93;2.28;;;23.40;97.70;;;;;;4983966;28;19922;-65
2023/07/30 11:53:56;;;;;;;6.70;1.73;;;23.40;98.30;;;;;;4989065;28;20081;-66
2023/07/30 11:56:24;;;;;;;5.88;1.92;;;23.50;97.70;;;;;;4988400;28;20053;-67
2023/07/30 11:58:55;;;;;;;10.05;2.08;;;23.50;95.70;;;;;;4991109;28;20070;-66
2023/07/30 12:01:23;;;;;;;10.52;2.22;;;23.20;95.00;;;;;;4996835;28;20062;-67
2023/07/30 12:03:49;;;;;;;8.85;2.42;;;22.80;95.80;;;;;;5011032;28;20575;-64
2023/07/30 12:06:15;;;;;;;14.40;2.05;;;22.60;96.90;;;;;;5005025;28;20050;-67
2023/07/30 12:08:41;;;;;;;7.20;1.70;;;22.60;97.40;;;;;;4998237;28;20050;-66
2023/07/30 12:11:08;;;;;;;11.88;2.10;;;22.50;97.10;;;;;;4982839;28;20125;-66
2023/07/30 12:13:41;;;;;;;6.22;1.58;;;22.30;96.60;;;;;;4986727;28;20559;-64
2023/07/30 12:16:07;;;;;;;8.50;2.50;;;22.10;96.30;;;;;;4994631;28;20034;-66
2023/07/30 12:18:32;;;;;;;6.25;2.03;;;21.90;96.50;;;;;;4984703;28;20049;-66
2023/07/30 12:20:58;;;;;;;5.97;1.95;;;22.00;96.70;;;;;;4984294;28;20046;-65
2023/07/30 12:23:23;;;;;;;6.93;1.90;;;21.90;97.00;;;;;;4992859;28;20034;-66
2023/07/30 12:25:50;;;;;;;5.40;1.50;;;21.90;96.20;;;;;;4986627;28;20127;-67
2023/07/30 12:28:16;;;;;;;8.52;1.90;;;21.90;97.10;;;;;;4976911;28;20508;-65
2023/07/30 12:30:42;;;;;;;7.47;1.88;;;22.10;97.50;;;;;;4983166;28;20122;-66
2023/07/30 12:33:07;;;;;;;5.75;1.90;;;22.20;97.50;;;;;;4973971;28;20166;-67
2023/07/30 12:35:33;;;;;;;6.20;1.83;;;22.40;97.70;;;;;;4976108;28;20073;-66